CheckWX is a tool to help pilots better visualize weather data.  It is not intended as a substitute for an official pre-flight weather briefing.

20:09:43 UTC

KOTG METAR
Worthington Municipal Airport
Worthington, Minnesota, USA
Current

1 hour ago

KOTG 231856Z AUTO VRB03KT 10SM CLR 16/02 A3011 RMK AO2 SLP205 T01610022
Observed
Apr-23 @ 18:56 UTC
Wind
  • Variable at 3 KTS
Visibility
10 SM
Flight Rules
VFR
Cloud Levels
  • Clear skies
Temperature
16°C / 61°F
Dewpoint
C / 36°F
Humidity
39%
Altimeter
30.11" Hg
Pressure
1019.62 hPa
Previous

2 hours ago

KOTG 231756Z AUTO 00000KT 10SM CLR 14/03 A3014 RMK AO2 SLP215 T01440033 10150 20017 58015
Observed
Apr-23 @ 17:56 UTC
Visibility
10 SM
Flight Rules
VFR
Cloud Levels
  • Clear skies
Temperature
14°C / 57°F
Dewpoint
C / 37°F
Humidity
48%
Altimeter
30.14" Hg
Pressure
1020.62 hPa
Previous

3 hours ago

KOTG 231656Z AUTO 00000KT 10SM CLR 14/03 A3017 RMK AO2 SLP224 T01390028
Observed
Apr-23 @ 16:56 UTC
Visibility
10 SM
Flight Rules
VFR
Cloud Levels
  • Clear skies
Temperature
14°C / 57°F
Dewpoint
C / 37°F
Humidity
48%
Altimeter
30.17" Hg
Pressure
1021.72 hPa